createdAt,value
2022-09-15T04:00:16.871Z,20.29
2022-09-15T04:03:19.488Z,20.29
2022-09-15T04:06:22.770Z,19.83
2022-09-15T04:09:25.647Z,19.83
2022-09-15T04:12:29.553Z,19.84
2022-09-15T04:15:31.911Z,19.87
2022-09-15T04:18:35.335Z,19.92
2022-09-15T04:21:37.607Z,19.97
2022-09-15T04:24:39.621Z,19.97
2022-09-15T04:27:41.920Z,19.96
2022-09-15T04:30:43.933Z,19.96
2022-09-15T04:33:47.089Z,20.00
2022-09-15T04:36:49.706Z,19.98
2022-09-15T04:39:52.209Z,19.95
2022-09-15T04:42:54.297Z,19.94
2022-09-15T04:45:56.590Z,19.94
2022-09-15T04:48:58.739Z,19.95
2022-09-15T04:52:01.141Z,19.92
2022-09-15T04:55:03.305Z,19.95
2022-09-15T04:58:05.600Z,20.01
2022-09-15T05:01:13.957Z,20.05
2022-09-15T05:04:16.427Z,20.10
2022-09-15T05:07:19.633Z,20.13
2022-09-15T05:10:22.168Z,20.20
2022-09-15T05:13:24.205Z,20.20
2022-09-15T05:16:29.086Z,20.22
2022-09-15T05:19:31.145Z,20.27
2022-09-15T05:22:33.425Z,20.31
2022-09-15T05:25:35.448Z,20.31
2022-09-15T05:28:37.928Z,20.32
2022-09-15T05:31:40.017Z,20.35
2022-09-15T05:34:42.361Z,20.34
2022-09-15T05:37:44.414Z,20.38
2022-09-15T05:40:46.822Z,20.36
2022-09-15T05:43:50.708Z,20.36
2022-09-15T05:46:53.071Z,20.37
2022-09-15T05:49:55.552Z,20.35
2022-09-15T05:52:58.319Z,20.32
2022-09-15T05:56:10.614Z,20.38
2022-09-15T05:59:13.094Z,20.40
2022-09-15T06:02:15.253Z,20.46
2022-09-15T06:05:17.609Z,20.52
2022-09-15T06:08:19.926Z,20.51
2022-09-15T06:11:28.704Z,20.47
2022-09-15T06:14:30.740Z,20.48
2022-09-15T06:17:33.076Z,20.50
2022-09-15T06:20:35.102Z,20.56
2022-09-15T06:23:38.248Z,20.58
2022-09-15T06:26:40.477Z,20.60
2022-09-15T06:29:42.788Z,20.64
2022-09-15T06:32:48.112Z,20.70
2022-09-15T06:35:50.596Z,20.71
2022-09-15T06:38:53.077Z,20.73
2022-09-15T06:42:02.727Z,20.76
2022-09-15T06:45:06.414Z,20.76
2022-09-15T06:48:23.926Z,20.81
2022-09-15T06:51:31.302Z,20.83
2022-09-15T06:54:33.873Z,20.84
2022-09-15T06:57:36.335Z,20.83
2022-09-15T07:00:38.681Z,20.84
2022-09-15T07:03:43.537Z,20.85
2022-09-15T07:06:46.067Z,20.88
2022-09-15T07:09:49.132Z,20.91
2022-09-15T07:12:51.635Z,20.92
2022-09-15T07:15:55.951Z,20.95
2022-09-15T07:19:01.150Z,20.97
2022-09-15T07:22:03.173Z,21.00
2022-09-15T07:25:05.963Z,21.07
2022-09-15T07:28:07.962Z,21.14
2022-09-15T07:31:13.286Z,21.17
2022-09-15T07:34:15.418Z,21.22
2022-09-15T07:37:18.287Z,21.31
2022-09-15T07:40:21.954Z,21.40
2022-09-15T07:43:24.289Z,21.49
2022-09-15T07:46:29.402Z,21.48
2022-09-15T07:49:31.693Z,21.53
2022-09-15T07:52:33.827Z,21.55
2022-09-15T07:55:36.104Z,21.58
2022-09-15T07:58:38.326Z,21.62
2022-09-15T08:01:40.640Z,21.65
2022-09-15T08:04:43.409Z,21.71
2022-09-15T08:07:45.472Z,21.71
2022-09-15T08:10:47.750Z,21.74
2022-09-15T08:13:51.077Z,21.76
2022-09-15T08:16:53.392Z,21.79
2022-09-15T08:19:55.469Z,21.87
2022-09-15T08:22:57.838Z,21.92
2022-09-15T08:26:00.299Z,22.04
2022-09-15T08:29:02.588Z,22.09
2022-09-15T08:32:05.187Z,22.17
2022-09-15T08:35:08.638Z,22.21
2022-09-15T08:38:11.071Z,22.26
2022-09-15T08:41:27.454Z,22.34
2022-09-15T08:44:38.251Z,22.44
2022-09-15T08:47:44.968Z,22.59
2022-09-15T08:50:52.314Z,22.62
2022-09-15T08:54:02.138Z,22.63
2022-09-15T08:57:06.221Z,22.65
2022-09-15T09:00:15.608Z,22.65
2022-09-15T09:03:17.677Z,22.69
2022-09-15T09:06:41.177Z,22.78
2022-09-15T09:10:24.942Z,22.84
2022-09-15T09:13:49.142Z,22.89
2022-09-15T09:17:10.633Z,22.98
2022-09-15T09:20:32.208Z,23.06
2022-09-15T09:23:49.706Z,23.13
2022-09-15T09:26:55.315Z,23.25
2022-09-15T09:30:07.466Z,23.39
2022-09-15T09:33:38.697Z,23.43
2022-09-15T09:36:40.842Z,23.57
2022-09-15T09:39:43.122Z,23.60
2022-09-15T09:42:45.425Z,23.64
2022-09-15T09:45:47.761Z,23.75
2022-09-15T09:48:58.690Z,23.97
2022-09-15T09:52:03.536Z,24.14
2022-09-15T09:55:25.311Z,24.15
2022-09-15T09:58:27.607Z,24.16
2022-09-15T10:01:30.375Z,24.17
2022-09-15T10:04:32.756Z,24.31
2022-09-15T10:07:41.118Z,24.41
2022-09-15T10:10:52.638Z,24.35
2022-09-15T10:13:56.122Z,24.36
2022-09-15T10:17:20.301Z,24.29
2022-09-15T10:20:28.193Z,24.28
2022-09-15T10:23:32.724Z,24.23
2022-09-15T10:26:34.830Z,24.26
2022-09-15T10:29:39.277Z,24.25
2022-09-15T10:32:42.698Z,24.26
2022-09-15T10:35:45.425Z,24.37
2022-09-15T10:39:24.969Z,24.51
2022-09-15T10:42:50.149Z,24.63
2022-09-15T10:46:04.851Z,24.73
2022-09-15T10:49:16.006Z,24.87
2022-09-15T10:52:58.410Z,24.92
2022-09-15T10:56:09.614Z,24.89
2022-09-15T10:59:30.379Z,24.81
2022-09-15T11:02:57.087Z,24.78
2022-09-15T11:06:27.021Z,24.73
2022-09-15T11:09:48.618Z,24.65
2022-09-15T11:13:15.291Z,24.65
2022-09-15T11:16:49.017Z,24.63
2022-09-15T11:20:25.207Z,24.56
2022-09-15T11:23:40.466Z,24.59
2022-09-15T11:26:52.112Z,24.54
2022-09-15T11:30:01.148Z,24.47
2022-09-15T11:33:23.696Z,24.41
2022-09-15T11:36:37.082Z,24.32
2022-09-15T11:40:09.121Z,24.29
2022-09-15T11:43:37.459Z,24.26
2022-09-15T11:47:02.629Z,24.19
2022-09-15T11:50:11.033Z,24.15
2022-09-15T11:53:25.943Z,24.10
2022-09-15T11:56:45.609Z,24.14
2022-09-15T11:59:54.709Z,24.18
2022-09-15T12:03:32.520Z,24.20
2022-09-15T12:06:51.623Z,24.29
2022-09-15T12:09:54.139Z,24.26
2022-09-15T12:13:00.067Z,24.22
2022-09-15T12:16:03.962Z,24.18
2022-09-15T12:19:18.516Z,24.11
2022-09-15T12:22:35.009Z,24.08
2022-09-15T12:26:14.295Z,24.01
2022-09-15T12:29:22.345Z,24.01
2022-09-15T12:32:33.402Z,23.99
2022-09-15T12:35:35.710Z,24.02
2022-09-15T12:38:38.010Z,23.99
2022-09-15T12:41:47.620Z,24.02
2022-09-15T12:45:04.133Z,24.05
2022-09-15T12:48:19.924Z,24.06
2022-09-15T12:51:25.228Z,24.07
2022-09-15T12:54:31.374Z,24.08
2022-09-15T12:57:36.146Z,24.05
2022-09-15T13:00:49.981Z,23.99
2022-09-15T13:04:05.594Z,23.95
2022-09-15T13:07:17.158Z,23.86
2022-09-15T13:10:27.843Z,21.12
2022-09-15T13:14:08.029Z,20.21
2022-09-15T13:17:18.614Z,19.80
2022-09-15T13:20:31.774Z,19.80
2022-09-15T13:23:39.810Z,19.72
2022-09-15T13:26:44.638Z,19.78
2022-09-15T13:29:59.929Z,19.87
2022-09-15T13:33:23.983Z,19.85
2022-09-15T13:40:37.973Z,19.86
2022-09-15T13:43:52.189Z,19.93
2022-09-15T13:47:09.460Z,20.05
2022-09-15T13:50:17.274Z,20.07
2022-09-15T13:53:32.214Z,20.20
2022-09-15T13:56:41.205Z,20.20
2022-09-15T13:59:43.268Z,20.17
2022-09-15T14:05:56.637Z,20.32
2022-09-15T14:09:03.927Z,20.33
2022-09-15T14:12:12.056Z,20.35
2022-09-15T14:15:22.709Z,20.35
2022-09-15T14:18:25.401Z,20.43
2022-09-15T14:21:31.909Z,20.45
2022-09-15T14:24:40.043Z,20.49
2022-09-15T14:27:45.511Z,20.50
2022-09-15T14:30:48.510Z,20.53
2022-09-15T14:33:50.574Z,20.50
2022-09-15T14:37:05.644Z,20.52
2022-09-15T14:40:23.431Z,20.67
2022-09-15T14:43:28.180Z,20.50
2022-09-15T14:46:38.180Z,20.52
2022-09-15T14:49:40.479Z,20.47
2022-09-15T14:53:07.537Z,20.27
2022-09-15T14:56:17.029Z,20.10
2022-09-15T14:59:41.658Z,20.08
2022-09-15T15:03:17.555Z,19.94
2022-09-15T15:06:29.829Z,20.00
2022-09-15T15:09:51.194Z,20.06
2022-09-15T15:12:58.695Z,20.07
2022-09-15T15:16:01.202Z,20.03
2022-09-15T15:19:03.522Z,20.10
2022-09-15T15:22:11.989Z,20.12
2022-09-15T15:25:22.059Z,20.30
2022-09-15T15:28:38.548Z,20.35
2022-09-15T15:31:40.653Z,20.28
2022-09-15T15:34:50.546Z,20.24
2022-09-15T15:38:11.068Z,20.30
